createdAt,value
2019-01-05T00:02:19.475Z,99.03
2019-01-05T00:05:20.243Z,96.00
2019-01-05T00:08:08.198Z,95.73
2019-01-05T00:10:57.486Z,103.53
2019-01-05T00:13:50.255Z,104.40
2019-01-05T00:16:55.938Z,93.23
2019-01-05T00:19:57.784Z,106.17
2019-01-05T00:22:45.636Z,104.73
2019-01-05T00:25:38.372Z,103.20
2019-01-05T00:28:27.497Z,109.20
2019-01-05T00:31:20.404Z,100.80
2019-01-05T00:34:19.531Z,104.97
2019-01-05T00:37:16.062Z,99.63
2019-01-05T00:40:21.687Z,114.47
2019-01-05T00:43:07.845Z,111.30
2019-01-05T00:46:09.989Z,117.77
2019-01-05T00:49:00.500Z,127.27
2019-01-05T00:52:03.726Z,123.23
2019-01-05T00:54:54.195Z,120.17
2019-01-05T00:57:35.248Z,115.30
2019-01-05T01:00:41.969Z,117.13
2019-01-05T01:03:31.075Z,132.53
2019-01-05T01:06:19.927Z,130.53
2019-01-05T01:09:18.328Z,134.60
2019-01-05T01:12:07.132Z,129.67
2019-01-05T01:15:14.553Z,116.97
2019-01-05T01:18:04.743Z,120.60
2019-01-05T01:20:51.165Z,124.50
2019-01-05T01:23:40.771Z,129.83
2019-01-05T01:26:24.323Z,136.00
2019-01-05T01:29:12.450Z,130.50
2019-01-05T01:32:15.701Z,142.60
2019-01-05T01:35:03.392Z,131.87
2019-01-05T01:38:31.877Z,134.93
2019-01-05T01:41:23.127Z,148.10
2019-01-05T01:44:12.227Z,148.00
2019-01-05T01:47:00.438Z,143.00
2019-01-05T01:49:51.050Z,137.60
2019-01-05T01:52:41.016Z,136.37
2019-01-05T01:55:39.116Z,124.90
2019-01-05T01:58:29.916Z,120.20
2019-01-05T02:01:19.100Z,126.40
2019-01-05T02:04:12.229Z,111.70
2019-01-05T02:07:09.691Z,129.87
2019-01-05T02:10:00.319Z,123.80
2019-01-05T02:13:01.036Z,115.30
2019-01-05T02:16:12.741Z,99.90
2019-01-05T02:19:47.781Z,123.60
2019-01-05T02:23:02.293Z,117.97
2019-01-05T02:26:39.336Z,123.93
2019-01-05T02:30:21.203Z,127.60
2019-01-05T02:33:46.678Z,124.37
2019-01-05T02:37:01.268Z,117.03
2019-01-05T02:40:32.958Z,135.53
2019-01-05T02:43:41.178Z,146.67
2019-01-05T02:47:15.049Z,139.43
2019-01-05T02:50:39.700Z,143.00
2019-01-05T02:54:19.588Z,120.67
2019-01-05T02:58:06.186Z,141.90
2019-01-05T03:01:50.672Z,114.57
2019-01-05T03:05:19.781Z,142.53
2019-01-05T03:08:56.024Z,122.57
2019-01-05T03:12:37.434Z,134.70
2019-01-05T03:16:17.858Z,143.43
2019-01-05T03:19:56.832Z,113.83
2019-01-05T03:23:14.248Z,133.50
2019-01-05T03:26:54.640Z,144.63
2019-01-05T03:29:36.756Z,126.40
2019-01-05T03:33:08.610Z,127.43
2019-01-05T03:36:51.244Z,118.23
2019-01-05T03:39:57.274Z,123.93
2019-01-05T03:43:05.122Z,141.27
2019-01-05T03:46:20.468Z,124.97
2019-01-05T03:49:51.068Z,134.40
2019-01-05T03:53:31.716Z,131.17
2019-01-05T03:56:47.063Z,101.73
2019-01-05T04:00:17.090Z,114.00
2019-01-05T04:04:00.293Z,96.77
2019-01-05T04:07:17.097Z,110.67
2019-01-05T04:10:56.645Z,80.97
2019-01-05T04:14:32.966Z,90.33
2019-01-05T04:18:12.058Z,98.80
2019-01-05T04:21:51.565Z,87.63
2019-01-05T04:25:24.378Z,84.57
2019-01-05T04:28:55.867Z,73.53
2019-01-05T04:32:42.929Z,70.30
2019-01-05T04:36:23.317Z,73.37
2019-01-05T04:39:53.228Z,70.10
2019-01-05T04:43:23.110Z,61.73
2019-01-05T04:47:13.264Z,71.97
2019-01-05T04:50:29.357Z,65.00
2019-01-05T04:53:53.083Z,57.57
2019-01-05T04:57:40.474Z,55.07
2019-01-05T05:00:59.850Z,54.07
2019-01-05T05:04:47.811Z,54.33
2019-01-05T05:08:17.578Z,55.67
2019-01-05T05:11:56.083Z,49.03
2019-01-05T05:15:33.748Z,49.67
2019-01-05T05:18:44.639Z,46.77
2019-01-05T05:22:10.612Z,41.70
2019-01-05T05:25:38.379Z,44.57
2019-01-05T05:28:57.565Z,45.53
2019-01-05T05:32:44.956Z,43.33
2019-01-05T05:36:21.902Z,41.63
2019-01-05T05:39:57.647Z,45.13
2019-01-05T05:43:41.154Z,39.00
2019-01-05T05:47:18.298Z,47.87
2019-01-05T05:50:52.133Z,44.53
2019-01-05T05:54:31.980Z,37.80
2019-01-05T05:58:12.697Z,46.57
2019-01-05T06:01:30.731Z,44.70
2019-01-05T06:05:06.782Z,42.50
2019-01-05T06:08:40.358Z,57.20
2019-01-05T06:12:34.407Z,47.93
2019-01-05T06:16:09.398Z,49.37
2019-01-05T06:19:44.463Z,51.03
2019-01-05T06:23:09.954Z,40.17
2019-01-05T06:26:33.066Z,46.57
2019-01-05T06:29:57.717Z,52.00
2019-01-05T06:33:39.468Z,50.13
2019-01-05T06:37:14.997Z,52.10
2019-01-05T06:40:58.302Z,41.63
2019-01-05T06:44:35.827Z,41.97
2019-01-05T06:47:52.462Z,39.47
2019-01-05T06:51:18.192Z,41.80
2019-01-05T06:54:36.219Z,37.20
2019-01-05T06:58:00.548Z,33.67
2019-01-05T07:01:24.580Z,34.67
2019-01-05T07:05:05.769Z,33.33
2019-01-05T07:08:52.659Z,32.10
2019-01-05T07:12:32.160Z,29.30
2019-01-05T07:16:08.848Z,24.63
2019-01-05T07:19:52.701Z,28.77
2019-01-05T07:23:22.624Z,28.43
2019-01-05T07:27:19.865Z,27.93
2019-01-05T07:30:59.682Z,26.87
2019-01-05T07:34:40.462Z,23.67
2019-01-05T07:38:04.410Z,18.60
2019-01-05T07:41:38.227Z,16.90
2019-01-05T07:45:13.924Z,14.87
2019-01-05T07:48:50.977Z,15.93
2019-01-05T07:52:13.093Z,18.80
2019-01-05T07:55:35.215Z,18.63
2019-01-05T07:58:49.268Z,21.77
2019-01-05T08:02:25.100Z,19.97
2019-01-05T08:05:57.786Z,22.67
2019-01-05T08:09:35.184Z,18.07
2019-01-05T08:13:23.966Z,17.20
2019-01-05T08:17:18.019Z,18.23
2019-01-05T08:20:49.208Z,18.67
2019-01-05T08:24:37.056Z,23.70
2019-01-05T08:28:24.251Z,21.40
2019-01-05T08:31:42.277Z,17.77
2019-01-05T08:35:09.286Z,14.30
2019-01-05T08:38:33.274Z,17.87
2019-01-05T08:41:36.949Z,14.77
2019-01-05T08:45:34.504Z,20.30
2019-01-05T08:49:10.905Z,16.90
2019-01-05T08:52:43.276Z,16.03
2019-01-05T08:56:21.361Z,16.63
2019-01-05T08:59:36.835Z,17.23
2019-01-05T09:03:17.791Z,14.80
2019-01-05T09:07:08.895Z,20.63
2019-01-05T09:10:41.515Z,19.83
2019-01-05T09:14:17.647Z,15.23
2019-01-05T09:17:47.135Z,14.87
2019-01-05T09:21:32.396Z,16.87
2019-01-05T09:25:21.518Z,14.40
2019-01-05T09:29:00.543Z,14.00
2019-01-05T09:32:58.467Z,13.87
2019-01-05T09:36:24.047Z,13.47
2019-01-05T09:39:59.361Z,11.40
2019-01-05T09:43:46.196Z,11.57
2019-01-05T09:47:21.813Z,13.27
2019-01-05T09:50:50.436Z,11.80
2019-01-05T09:54:28.494Z,15.03
2019-01-05T09:58:21.591Z,11.73
2019-01-05T10:02:11.842Z,9.40
2019-01-05T10:05:38.876Z,9.60
2019-01-05T10:09:28.369Z,8.10
2019-01-05T10:13:10.157Z,11.20
2019-01-05T10:16:55.623Z,10.87
2019-01-05T10:20:40.513Z,8.60
2019-01-05T10:24:17.631Z,10.60
2019-01-05T10:27:34.242Z,12.03
2019-01-05T10:30:58.016Z,8.67
2019-01-05T10:34:58.718Z,8.93
2019-01-05T10:38:22.805Z,8.67
2019-01-05T10:42:06.991Z,11.27
2019-01-05T10:45:30.508Z,8.10
2019-01-05T10:49:02.643Z,12.50
2019-01-05T10:52:49.553Z,9.97
2019-01-05T10:56:07.283Z,9.83
2019-01-05T10:59:40.310Z,10.10
2019-01-05T11:03:09.917Z,9.90
2019-01-05T11:06:33.749Z,13.13
2019-01-05T11:10:12.197Z,15.70
2019-01-05T11:13:52.985Z,15.97
2019-01-05T11:17:38.381Z,19.10
2019-01-05T11:20:47.859Z,16.40
2019-01-05T11:24:13.184Z,16.87
2019-01-05T11:27:57.705Z,16.83
2019-01-05T11:31:25.242Z,17.20
2019-01-05T11:34:46.790Z,11.70
2019-01-05T11:38:23.310Z,15.20
2019-01-05T11:41:47.163Z,17.07
2019-01-05T11:45:38.696Z,18.73
2019-01-05T11:49:02.589Z,15.73
2019-01-05T11:52:31.283Z,21.10
2019-01-05T11:55:54.674Z,21.43
2019-01-05T11:59:43.595Z,25.40
2019-01-05T12:03:04.278Z,21.13
2019-01-05T12:06:21.172Z,23.60
2019-01-05T12:09:45.287Z,22.43
2019-01-05T12:13:32.192Z,22.07
2019-01-05T12:17:19.524Z,21.00
2019-01-05T12:20:57.245Z,19.70
2019-01-05T12:24:50.162Z,23.93
2019-01-05T12:28:27.246Z,22.13
2019-01-05T12:31:56.101Z,18.97
2019-01-05T12:35:48.920Z,21.43
2019-01-05T12:39:31.029Z,15.00
2019-01-05T12:42:55.562Z,16.30
2019-01-05T12:46:26.870Z,15.73
2019-01-05T12:50:10.963Z,18.83
2019-01-05T12:53:54.722Z,18.27
2019-01-05T12:57:32.709Z,15.70
2019-01-05T13:00:54.631Z,18.90
2019-01-05T13:04:45.983Z,18.67
2019-01-05T13:08:12.776Z,20.57
2019-01-05T13:11:56.725Z,15.17
2019-01-05T13:15:18.679Z,17.33
2019-01-05T13:18:51.730Z,15.77
2019-01-05T13:22:37.849Z,15.23
2019-01-05T13:25:56.335Z,18.60
2019-01-05T13:29:17.117Z,16.43
2019-01-05T13:32:38.220Z,20.33
2019-01-05T13:35:47.658Z,18.87
2019-01-05T13:39:10.926Z,21.20
2019-01-05T13:42:49.752Z,18.07
2019-01-05T13:46:09.332Z,18.77
2019-01-05T13:49:45.817Z,27.00
2019-01-05T13:53:16.898Z,30.73
2019-01-05T13:56:45.090Z,29.63
2019-01-05T13:59:46.266Z,23.77
2019-01-05T14:02:38.115Z,28.13
2019-01-05T14:05:27.610Z,23.33
2019-01-05T14:08:15.609Z,21.80
2019-01-05T14:11:03.508Z,20.80
2019-01-05T14:13:51.783Z,21.90
2019-01-05T14:16:39.714Z,20.47
2019-01-05T14:19:28.959Z,20.33
2019-01-05T14:22:30.553Z,25.97
2019-01-05T14:25:31.969Z,19.53
2019-01-05T14:28:20.067Z,21.20
2019-01-05T14:31:08.160Z,17.90
2019-01-05T14:34:00.316Z,21.23
2019-01-05T14:36:58.240Z,19.30
2019-01-05T14:39:59.829Z,19.17
2019-01-05T14:42:47.836Z,20.13
2019-01-05T14:45:43.141Z,22.57
2019-01-05T14:48:35.310Z,18.97
2019-01-05T14:51:24.441Z,16.27
2019-01-05T14:54:12.858Z,20.80
2019-01-05T14:57:20.163Z,23.07
2019-01-05T15:00:11.919Z,26.47
2019-01-05T15:02:59.637Z,21.77
2019-01-05T15:05:54.528Z,18.20
2019-01-05T15:08:42.481Z,19.37
2019-01-05T15:11:34.566Z,17.07
2019-01-05T15:14:23.663Z,21.17
2019-01-05T15:17:21.686Z,18.40
2019-01-05T15:20:29.081Z,19.63
2019-01-05T15:23:17.012Z,19.90
2019-01-05T15:26:06.825Z,26.50
2019-01-05T15:29:05.476Z,25.97
2019-01-05T15:31:53.521Z,23.97
2019-01-05T15:34:55.120Z,25.87
2019-01-05T15:37:44.178Z,23.23
2019-01-05T15:40:35.663Z,22.80
2019-01-05T15:43:37.065Z,25.93
2019-01-05T15:46:42.657Z,26.10
2019-01-05T15:49:50.208Z,25.93
2019-01-05T15:52:38.290Z,22.17
2019-01-05T15:55:42.340Z,25.87
2019-01-05T15:58:30.839Z,23.07
2019-01-05T16:01:26.199Z,28.93
2019-01-05T16:04:27.243Z,25.23
2019-01-05T16:07:30.661Z,24.80
2019-01-05T16:10:19.818Z,27.43
2019-01-05T16:13:17.945Z,22.47
2019-01-05T16:16:07.049Z,28.67
2019-01-05T16:18:55.193Z,24.23
2019-01-05T16:21:50.290Z,21.87
2019-01-05T16:24:38.447Z,24.80
2019-01-05T16:27:26.700Z,21.23
2019-01-05T16:30:14.555Z,27.03
2019-01-05T16:33:12.633Z,26.90
2019-01-05T16:36:07.874Z,27.67
2019-01-05T16:38:55.858Z,27.47
2019-01-05T16:41:45.698Z,23.37
2019-01-05T16:44:53.354Z,25.93
2019-01-05T16:47:41.559Z,26.07
2019-01-05T16:50:29.309Z,25.63
2019-01-05T16:53:17.147Z,24.07
2019-01-05T16:56:05.083Z,28.37
2019-01-05T16:58:52.921Z,26.17
2019-01-05T17:01:40.983Z,27.23
2019-01-05T17:04:28.931Z,29.30
2019-01-05T17:07:16.852Z,26.03
2019-01-05T17:10:11.769Z,29.13
2019-01-05T17:13:11.362Z,30.50
2019-01-05T17:15:56.695Z,30.47
2019-01-05T17:18:38.832Z,28.47
2019-01-05T17:21:30.961Z,32.30
2019-01-05T17:24:19.518Z,38.20
2019-01-05T17:27:11.758Z,34.27
2019-01-05T17:30:06.580Z,51.80
2019-01-05T17:33:01.806Z,55.97
2019-01-05T17:35:47.948Z,33.73
2019-01-05T17:38:36.219Z,35.20
2019-01-05T17:41:40.538Z,35.10
2019-01-05T17:44:28.598Z,38.07
2019-01-05T17:47:23.580Z,38.00
2019-01-05T17:50:07.853Z,35.53
2019-01-05T17:53:00.049Z,35.93
2019-01-05T17:55:48.123Z,38.70
2019-01-05T17:58:49.533Z,39.93
2019-01-05T18:01:37.464Z,35.33
2019-01-05T18:04:29.350Z,37.27
2019-01-05T18:07:20.243Z,42.93
2019-01-05T18:10:08.249Z,38.93
2019-01-05T18:12:57.514Z,43.97
2019-01-05T18:15:46.742Z,48.43
2019-01-05T18:18:33.036Z,44.83
2019-01-05T18:21:24.703Z,45.43
2019-01-05T18:24:12.866Z,42.13
2019-01-05T18:27:02.328Z,40.70
2019-01-05T18:29:59.169Z,44.67
2019-01-05T18:32:46.962Z,48.17
2019-01-05T18:35:42.151Z,48.63
2019-01-05T18:38:29.952Z,51.23
2019-01-05T18:41:18.042Z,44.20
2019-01-05T18:44:05.917Z,57.07
2019-01-05T18:46:56.483Z,51.30
2019-01-05T18:49:56.488Z,51.73
2019-01-05T18:52:43.730Z,51.23
2019-01-05T18:55:39.099Z,53.33
2019-01-05T18:58:31.495Z,52.13
2019-01-05T19:01:29.942Z,48.53
2019-01-05T19:04:27.024Z,49.17
2019-01-05T19:07:19.193Z,51.07
2019-01-05T19:10:04.862Z,49.77
2019-01-05T19:12:56.254Z,47.57
2019-01-05T19:15:44.053Z,47.80
2019-01-05T19:18:32.422Z,44.10
2019-01-05T19:21:39.840Z,49.60
2019-01-05T19:24:42.555Z,50.67
2019-01-05T19:27:34.664Z,52.47
2019-01-05T19:30:23.274Z,49.33
2019-01-05T19:33:11.124Z,45.47
2019-01-05T19:36:12.608Z,44.70
2019-01-05T19:39:07.743Z,45.40
2019-01-05T19:42:09.325Z,48.07
2019-01-05T19:44:57.027Z,43.27
2019-01-05T19:47:44.742Z,52.07
2019-01-05T19:50:33.847Z,49.27
2019-01-05T19:53:25.804Z,47.17
2019-01-05T19:56:29.717Z,46.87
2019-01-05T19:59:17.720Z,46.00
2019-01-05T20:02:25.343Z,48.07
2019-01-05T20:05:13.234Z,49.60
2019-01-05T20:08:05.063Z,44.87
2019-01-05T20:11:09.141Z,45.30
2019-01-05T20:13:52.279Z,47.47
2019-01-05T20:16:40.274Z,47.20
2019-01-05T20:19:32.203Z,48.53
2019-01-05T20:22:19.958Z,45.33
2019-01-05T20:25:07.922Z,45.50
2019-01-05T20:28:15.298Z,47.33
2019-01-05T20:31:01.505Z,53.63
2019-01-05T20:33:50.620Z,51.07
2019-01-05T20:36:48.674Z,49.80
2019-01-05T20:39:49.677Z,47.77
2019-01-05T20:42:37.812Z,46.30
2019-01-05T20:45:29.752Z,49.27
2019-01-05T20:48:17.460Z,45.33
2019-01-05T20:51:09.364Z,44.37
2019-01-05T20:53:57.179Z,53.50
2019-01-05T20:56:58.293Z,48.20
2019-01-05T20:59:56.717Z,49.60
2019-01-05T21:02:44.425Z,46.33
2019-01-05T21:05:37.201Z,49.43
2019-01-05T21:08:19.685Z,51.40
2019-01-05T21:11:21.189Z,51.47
2019-01-05T21:14:28.844Z,42.47
2019-01-05T21:17:16.686Z,49.67
2019-01-05T21:20:05.858Z,48.57
2019-01-05T21:22:55.683Z,46.13
2019-01-05T21:25:46.246Z,44.30
2019-01-05T21:28:53.666Z,43.40
2019-01-05T21:31:41.494Z,43.67
2019-01-05T21:34:30.018Z,45.30
2019-01-05T21:37:22.614Z,50.10
2019-01-05T21:40:21.095Z,52.13
2019-01-05T21:43:22.475Z,44.23
2019-01-05T21:46:10.510Z,46.77
2019-01-05T21:49:02.423Z,45.23
2019-01-05T21:51:50.320Z,50.53
2019-01-05T21:54:48.617Z,44.67
2019-01-05T21:57:36.837Z,42.73
2019-01-05T22:00:23.720Z,45.07
2019-01-05T22:03:18.972Z,45.87
2019-01-05T22:06:07.042Z,45.57
2019-01-05T22:09:11.284Z,40.93
2019-01-05T22:11:58.291Z,43.63
2019-01-05T22:14:46.125Z,47.10
2019-01-05T22:17:42.521Z,43.53
2019-01-05T22:20:46.842Z,46.00
2019-01-05T22:23:35.620Z,39.77
2019-01-05T22:26:30.531Z,38.13
2019-01-05T22:29:18.520Z,42.03
2019-01-05T22:32:06.121Z,42.73
2019-01-05T22:35:13.417Z,42.80
2019-01-05T22:38:01.238Z,43.03
2019-01-05T22:40:49.160Z,40.97
2019-01-05T22:43:43.466Z,45.53
2019-01-05T22:46:44.985Z,38.73
2019-01-05T22:49:34.089Z,40.67
2019-01-05T22:52:17.439Z,39.10
2019-01-05T22:55:12.547Z,37.83
2019-01-05T22:58:11.167Z,34.17
2019-01-05T23:01:00.461Z,41.57
2019-01-05T23:03:49.959Z,37.47
2019-01-05T23:06:42.496Z,34.70
2019-01-05T23:09:37.799Z,38.13
2019-01-05T23:12:25.774Z,36.63
2019-01-05T23:15:21.129Z,47.07
2019-01-05T23:18:09.100Z,37.57
2019-01-05T23:21:01.308Z,36.17
2019-01-05T23:23:50.396Z,41.90
2019-01-05T23:26:48.529Z,39.07
2019-01-05T23:29:35.098Z,34.57
2019-01-05T23:32:30.297Z,37.47
2019-01-05T23:35:22.264Z,37.70
2019-01-05T23:38:10.229Z,43.90
2019-01-05T23:41:03.216Z,39.77
2019-01-05T23:44:07.716Z,39.03
2019-01-05T23:47:02.946Z,36.43
2019-01-05T23:50:03.221Z,43.50
2019-01-05T23:52:55.393Z,40.57
2019-01-05T23:56:02.200Z,37.63
2019-01-05T23:58:50.157Z,34.47
